createdAt,value
2019-02-09T00:01:12.754Z,0.90
2019-02-09T00:03:40.281Z,0.90
2019-02-09T00:06:07.794Z,0.80
2019-02-09T00:08:35.377Z,0.90
2019-02-09T00:11:05.153Z,0.90
2019-02-09T00:13:32.687Z,0.90
2019-02-09T00:16:00.240Z,0.90
2019-02-09T00:18:27.718Z,0.80
2019-02-09T00:20:55.231Z,0.80
2019-02-09T00:23:22.801Z,0.80
2019-02-09T00:25:50.381Z,0.80
2019-02-09T00:28:17.897Z,0.90
2019-02-09T00:30:45.420Z,0.90
2019-02-09T00:33:12.921Z,0.90
2019-02-09T00:35:40.501Z,0.90
2019-02-09T00:38:08.001Z,0.90
2019-02-09T00:40:35.511Z,1.00
2019-02-09T00:43:03.047Z,0.90
2019-02-09T00:45:30.654Z,0.80
2019-02-09T00:47:58.151Z,0.90
2019-02-09T00:50:25.681Z,0.80
2019-02-09T00:52:53.287Z,0.90
2019-02-09T00:55:21.559Z,0.90
2019-02-09T00:57:49.417Z,0.90
2019-02-09T01:00:19.598Z,0.90
2019-02-09T01:02:47.249Z,0.80
2019-02-09T01:05:16.397Z,1.00
2019-02-09T01:07:43.939Z,0.90
2019-02-09T01:10:12.745Z,0.90
2019-02-09T01:12:40.237Z,0.80
2019-02-09T01:15:10.304Z,0.80
2019-02-09T01:17:40.123Z,0.80
2019-02-09T01:20:43.525Z,0.80
2019-02-09T01:23:14.437Z,0.80
2019-02-09T01:25:42.139Z,0.90
2019-02-09T01:28:09.732Z,0.80
2019-02-09T01:30:37.343Z,0.70
2019-02-09T01:33:04.869Z,0.70
2019-02-09T01:35:32.409Z,0.80
2019-02-09T01:37:59.905Z,0.80
2019-02-09T01:40:27.426Z,0.70
2019-02-09T01:42:55.094Z,0.70
2019-02-09T01:45:24.823Z,0.80
2019-02-09T01:47:52.633Z,0.90
2019-02-09T01:50:20.336Z,0.70
2019-02-09T01:52:47.845Z,0.70
2019-02-09T01:55:15.361Z,0.70
2019-02-09T01:57:43.001Z,0.70
2019-02-09T02:00:21.881Z,0.80
2019-02-09T02:02:49.739Z,0.70
2019-02-09T02:05:19.058Z,0.70
2019-02-09T02:07:46.585Z,0.90
2019-02-09T02:10:23.517Z,0.70
2019-02-09T02:12:51.146Z,0.70
2019-02-09T02:15:18.674Z,0.70
2019-02-09T02:17:46.217Z,0.70
2019-02-09T02:20:16.177Z,0.60
2019-02-09T02:22:43.795Z,0.60
2019-02-09T02:25:11.649Z,0.60
2019-02-09T02:27:39.155Z,0.60
2019-02-09T02:30:08.334Z,0.60
2019-02-09T02:32:35.880Z,0.70
2019-02-09T02:35:04.587Z,0.60
2019-02-09T02:37:32.099Z,0.60
2019-02-09T02:39:59.645Z,0.60
2019-02-09T02:42:27.163Z,0.70
2019-02-09T02:44:54.677Z,0.70
2019-02-09T02:47:22.245Z,0.50
2019-02-09T02:49:51.022Z,0.80
2019-02-09T02:52:18.528Z,0.50
2019-02-09T02:54:46.089Z,0.70
2019-02-09T02:57:13.585Z,0.70
2019-02-09T02:59:41.117Z,0.60
2019-02-09T03:02:08.622Z,0.60
2019-02-09T03:04:36.190Z,0.80
2019-02-09T03:07:03.765Z,0.60
2019-02-09T03:09:31.272Z,0.60
2019-02-09T03:11:58.873Z,0.70
2019-02-09T03:14:26.377Z,0.80
2019-02-09T03:16:53.921Z,0.60
2019-02-09T03:19:21.495Z,0.60
2019-02-09T03:21:49.024Z,0.70
2019-02-09T03:24:16.521Z,0.60
2019-02-09T03:26:44.093Z,0.60
2019-02-09T03:29:11.586Z,0.60
2019-02-09T03:31:39.112Z,0.60
2019-02-09T03:34:06.669Z,0.60
2019-02-09T03:36:34.155Z,0.60
2019-02-09T03:39:01.685Z,0.70
2019-02-09T03:41:29.269Z,0.70
2019-02-09T03:43:56.733Z,0.70
2019-02-09T03:46:24.286Z,0.70
2019-02-09T03:48:53.843Z,0.70
2019-02-09T03:51:21.333Z,0.70
2019-02-09T03:53:49.955Z,0.70
2019-02-09T03:56:17.449Z,0.70
2019-02-09T03:58:44.937Z,1.00
2019-02-09T04:01:12.485Z,0.70
2019-02-09T04:03:40.033Z,0.70
2019-02-09T04:06:07.549Z,0.70
2019-02-09T04:08:35.121Z,0.90
2019-02-09T04:11:02.628Z,0.70
2019-02-09T04:13:30.134Z,0.90
2019-02-09T04:15:57.691Z,0.70
2019-02-09T04:18:25.232Z,0.90
2019-02-09T04:20:52.764Z,0.80
2019-02-09T04:23:20.823Z,0.80
2019-02-09T04:25:48.305Z,1.00
2019-02-09T04:28:15.798Z,0.70
2019-02-09T04:30:43.305Z,0.80
2019-02-09T04:33:10.847Z,0.80
2019-02-09T04:35:38.398Z,1.00
2019-02-09T04:38:05.887Z,0.80
2019-02-09T04:40:33.377Z,0.80
2019-02-09T04:43:00.946Z,0.80
2019-02-09T04:45:28.769Z,1.00
2019-02-09T04:47:56.247Z,0.90
2019-02-09T04:50:23.793Z,0.80
2019-02-09T04:52:51.326Z,0.90
2019-02-09T04:55:20.585Z,0.80
2019-02-09T04:57:48.219Z,0.80
2019-02-09T05:00:18.262Z,0.80
2019-02-09T05:02:45.787Z,0.90
2019-02-09T05:05:13.439Z,1.00
2019-02-09T05:07:40.971Z,1.00
2019-02-09T05:10:09.741Z,0.90
2019-02-09T05:12:37.288Z,0.90
2019-02-09T05:15:06.394Z,1.20
2019-02-09T05:17:33.911Z,1.20
2019-02-09T05:20:01.472Z,1.10
2019-02-09T05:22:28.980Z,1.10
2019-02-09T05:24:56.496Z,1.10
2019-02-09T05:27:25.603Z,0.90
2019-02-09T05:29:53.128Z,1.00
2019-02-09T05:32:20.989Z,1.00
2019-02-09T05:34:48.565Z,1.00
2019-02-09T05:37:16.076Z,1.20
2019-02-09T05:39:43.590Z,1.20
2019-02-09T05:42:11.114Z,1.10
2019-02-09T05:44:38.612Z,1.40
2019-02-09T05:47:06.100Z,1.10
2019-02-09T05:49:33.632Z,1.10
2019-02-09T05:52:01.122Z,1.10
2019-02-09T05:54:28.617Z,1.10
2019-02-09T05:56:56.136Z,1.10
2019-02-09T05:59:23.643Z,1.10
2019-02-09T06:01:51.154Z,1.10
2019-02-09T06:04:18.676Z,1.40
2019-02-09T06:06:46.194Z,1.10
2019-02-09T06:09:13.710Z,1.40
2019-02-09T06:11:41.233Z,1.20
2019-02-09T06:14:08.732Z,1.20
2019-02-09T06:16:36.257Z,1.20
2019-02-09T06:19:03.820Z,1.20
2019-02-09T06:21:31.332Z,1.50
2019-02-09T06:23:58.850Z,1.20
2019-02-09T06:26:26.418Z,1.40
2019-02-09T06:28:53.992Z,1.20
2019-02-09T06:31:21.499Z,1.30
2019-02-09T06:33:51.073Z,1.40
2019-02-09T06:36:18.603Z,1.50
2019-02-09T06:38:46.201Z,1.50
2019-02-09T06:41:13.695Z,1.40
2019-02-09T06:43:41.221Z,1.40
2019-02-09T06:46:08.750Z,1.50
2019-02-09T06:48:36.291Z,1.80
2019-02-09T06:51:04.806Z,1.60
2019-02-09T06:53:32.375Z,1.70
2019-02-09T06:55:59.894Z,1.80
2019-02-09T06:58:27.414Z,1.90
2019-02-09T07:00:54.968Z,2.00
2019-02-09T07:03:22.540Z,2.00
2019-02-09T07:05:51.142Z,2.10
2019-02-09T07:08:18.656Z,1.90
2019-02-09T07:10:46.441Z,2.20
2019-02-09T07:13:13.974Z,2.30
2019-02-09T07:15:41.772Z,2.40
2019-02-09T07:18:09.339Z,2.40
2019-02-09T07:20:36.826Z,2.40
2019-02-09T07:23:04.979Z,2.50
2019-02-09T07:25:32.615Z,2.60
2019-02-09T07:28:00.146Z,2.60
2019-02-09T07:30:28.858Z,2.60
2019-02-09T07:32:57.626Z,2.70
2019-02-09T07:35:25.231Z,2.80
2019-02-09T07:37:52.838Z,2.80
2019-02-09T07:40:21.156Z,2.90
2019-02-09T07:42:48.766Z,3.00
2019-02-09T07:45:18.394Z,2.90
2019-02-09T07:47:45.948Z,3.00
2019-02-09T07:50:15.249Z,3.00
2019-02-09T07:52:42.770Z,3.10
2019-02-09T07:55:12.018Z,3.20
2019-02-09T07:57:39.542Z,3.20
2019-02-09T08:00:10.790Z,3.20
2019-02-09T08:02:38.370Z,3.20
2019-02-09T08:05:06.114Z,3.30
2019-02-09T08:07:33.642Z,3.50
2019-02-09T08:10:01.178Z,3.30
2019-02-09T08:12:28.720Z,3.30
2019-02-09T08:14:56.215Z,3.40
2019-02-09T08:17:23.748Z,3.40
2019-02-09T08:19:51.294Z,3.50
2019-02-09T08:22:18.813Z,3.60
2019-02-09T08:24:46.306Z,3.80
2019-02-09T08:27:13.881Z,4.10
2019-02-09T08:29:41.446Z,4.60
2019-02-09T08:32:12.764Z,5.20
2019-02-09T08:34:40.575Z,5.70
2019-02-09T08:37:20.802Z,5.60
2019-02-09T08:40:09.410Z,5.30
2019-02-09T08:42:49.172Z,5.10
2019-02-09T08:45:17.662Z,4.80
2019-02-09T08:47:45.282Z,4.70
2019-02-09T08:50:16.394Z,4.60
2019-02-09T08:52:48.126Z,4.50
2019-02-09T08:55:24.666Z,4.40
2019-02-09T08:57:52.370Z,4.40
2019-02-09T09:00:22.806Z,4.30
2019-02-09T09:02:52.622Z,4.20
2019-02-09T09:05:20.110Z,4.30
2019-02-09T09:07:47.736Z,4.30
2019-02-09T09:10:16.034Z,4.30
2019-02-09T09:12:43.542Z,4.20
2019-02-09T09:15:17.084Z,4.10
2019-02-09T09:17:44.573Z,4.20
2019-02-09T09:20:16.276Z,4.10
2019-02-09T09:22:43.760Z,4.20
2019-02-09T09:25:11.320Z,4.00
2019-02-09T09:27:38.864Z,4.20
2019-02-09T09:30:08.566Z,4.10
2019-02-09T09:32:36.082Z,4.20
2019-02-09T09:35:23.236Z,4.20
2019-02-09T09:37:51.072Z,4.30
2019-02-09T09:40:26.638Z,4.40
2019-02-09T09:42:54.974Z,4.30
2019-02-09T09:45:24.899Z,4.30
2019-02-09T09:47:52.618Z,4.40
2019-02-09T09:50:21.466Z,4.40
2019-02-09T09:52:49.178Z,4.30
2019-02-09T09:55:17.184Z,4.40
2019-02-09T09:57:44.706Z,4.40
2019-02-09T10:00:14.256Z,4.40
2019-02-09T10:02:41.768Z,4.40
2019-02-09T10:05:09.468Z,4.40
2019-02-09T10:07:37.026Z,4.40
2019-02-09T10:10:05.983Z,4.40
2019-02-09T10:12:33.670Z,4.40
2019-02-09T10:15:01.318Z,4.40
2019-02-09T10:17:28.798Z,4.40
2019-02-09T10:19:56.350Z,4.40
2019-02-09T10:22:33.890Z,4.50
2019-02-09T10:25:01.369Z,4.50
2019-02-09T10:27:33.690Z,4.50
2019-02-09T10:30:01.205Z,4.50
2019-02-09T10:32:53.972Z,4.60
2019-02-09T10:35:30.389Z,4.60
2019-02-09T10:37:57.898Z,4.60
2019-02-09T10:40:27.354Z,4.80
2019-02-09T10:42:55.109Z,4.70
2019-02-09T10:45:27.206Z,4.80
2019-02-09T10:47:54.818Z,4.80
2019-02-09T10:50:27.932Z,4.80
2019-02-09T10:52:55.434Z,4.90
2019-02-09T10:55:23.020Z,4.80
2019-02-09T10:57:51.954Z,4.90
2019-02-09T11:00:35.090Z,4.90
2019-02-09T11:03:25.596Z,5.00
2019-02-09T11:06:01.450Z,5.00
2019-02-09T11:08:34.628Z,5.00
2019-02-09T11:11:02.094Z,5.10
2019-02-09T11:13:30.209Z,5.10
2019-02-09T11:15:57.730Z,5.20
2019-02-09T11:18:25.255Z,5.30
2019-02-09T11:20:52.846Z,5.30
2019-02-09T11:23:20.373Z,5.40
2019-02-09T11:25:48.004Z,5.40
2019-02-09T11:28:15.552Z,5.40
2019-02-09T11:30:43.126Z,5.50
2019-02-09T11:33:10.666Z,5.60
2019-02-09T11:35:38.162Z,5.70
2019-02-09T11:38:05.860Z,5.80
2019-02-09T11:40:33.474Z,6.00
2019-02-09T11:43:02.238Z,6.10
2019-02-09T11:45:31.919Z,6.20
2019-02-09T11:47:59.548Z,6.30
2019-02-09T11:50:29.070Z,6.40
2019-02-09T11:52:56.895Z,6.50
2019-02-09T11:55:24.493Z,6.40
2019-02-09T11:57:52.038Z,6.50
2019-02-09T12:00:34.101Z,6.50
2019-02-09T12:03:05.529Z,6.50
2019-02-09T12:05:31.013Z,6.60
2019-02-09T12:07:58.587Z,6.60
2019-02-09T12:10:26.389Z,6.70
2019-02-09T12:12:53.922Z,6.70
2019-02-09T12:15:25.348Z,6.70
2019-02-09T12:17:53.147Z,6.80
2019-02-09T12:20:20.970Z,6.80
2019-02-09T12:22:56.891Z,6.80
2019-02-09T12:25:29.234Z,6.60
2019-02-09T12:27:56.698Z,6.90
2019-02-09T12:30:43.427Z,6.90
2019-02-09T12:33:10.961Z,6.90
2019-02-09T12:35:38.785Z,6.90
2019-02-09T12:38:06.696Z,6.90
2019-02-09T12:40:34.294Z,6.80
2019-02-09T12:43:01.810Z,6.80
2019-02-09T12:45:30.794Z,6.90
2019-02-09T12:47:58.362Z,6.90
2019-02-09T12:50:26.231Z,6.80
2019-02-09T12:52:53.736Z,6.80
2019-02-09T12:55:39.450Z,6.80
2019-02-09T12:58:07.300Z,6.80
2019-02-09T13:01:03.482Z,6.80
2019-02-09T13:03:31.635Z,6.80
2019-02-09T13:05:59.337Z,6.90
2019-02-09T13:08:26.896Z,6.90
2019-02-09T13:10:54.805Z,6.90
2019-02-09T13:13:22.341Z,6.90
2019-02-09T13:15:49.893Z,7.00
2019-02-09T13:18:21.224Z,7.10
2019-02-09T13:21:02.430Z,7.00
2019-02-09T13:24:28.912Z,7.10
2019-02-09T13:26:56.453Z,7.10
2019-02-09T13:29:24.037Z,7.10
2019-02-09T13:31:51.663Z,7.10
2019-02-09T13:34:39.037Z,7.10
2019-02-09T13:37:08.902Z,7.20
2019-02-09T13:39:39.258Z,7.10
2019-02-09T13:42:07.274Z,7.10
2019-02-09T13:44:47.022Z,7.10
2019-02-09T13:47:14.544Z,7.00
2019-02-09T13:49:49.824Z,7.00
2019-02-09T13:53:05.289Z,7.00
2019-02-09T13:55:32.231Z,6.90
2019-02-09T13:58:21.423Z,6.80
2019-02-09T14:00:44.736Z,6.60
2019-02-09T14:03:12.291Z,6.40
2019-02-09T14:05:44.617Z,6.30
2019-02-09T14:08:12.485Z,6.10
2019-02-09T14:10:51.192Z,6.00
2019-02-09T14:13:19.964Z,5.90
2019-02-09T14:15:47.499Z,5.70
2019-02-09T14:18:15.094Z,5.60
2019-02-09T14:20:42.633Z,5.60
2019-02-09T14:23:10.184Z,5.60
2019-02-09T14:25:37.742Z,5.50
2019-02-09T14:28:05.618Z,5.50
2019-02-09T14:30:33.478Z,5.50
2019-02-09T14:33:02.554Z,5.50
2019-02-09T14:35:30.144Z,5.60
2019-02-09T14:38:01.676Z,5.60
2019-02-09T14:40:35.723Z,5.60
2019-02-09T14:43:04.069Z,5.60
2019-02-09T14:45:33.474Z,5.60
2019-02-09T14:48:01.209Z,5.60
2019-02-09T14:50:29.513Z,5.60
2019-02-09T14:52:57.242Z,5.70
2019-02-09T14:55:33.057Z,5.70
2019-02-09T14:58:01.005Z,5.70
2019-02-09T15:00:49.570Z,5.70
2019-02-09T15:03:17.281Z,5.70
2019-02-09T15:05:45.557Z,5.70
2019-02-09T15:08:13.088Z,5.70
2019-02-09T15:10:40.626Z,5.60
2019-02-09T15:13:14.180Z,5.70
2019-02-09T15:16:04.660Z,5.80
2019-02-09T15:18:32.251Z,5.70
2019-02-09T15:21:01.541Z,5.70
2019-02-09T15:23:42.219Z,5.70
2019-02-09T15:26:09.845Z,5.70
2019-02-09T15:28:37.386Z,5.70
2019-02-09T15:31:05.210Z,5.70
2019-02-09T15:33:32.789Z,5.70
2019-02-09T15:36:00.321Z,5.90
2019-02-09T15:38:27.912Z,5.90
2019-02-09T15:40:55.481Z,5.80
2019-02-09T15:43:24.712Z,5.90
2019-02-09T15:45:55.219Z,5.90
2019-02-09T15:48:25.760Z,5.90
2019-02-09T15:50:55.760Z,5.90
2019-02-09T15:53:26.563Z,5.90
2019-02-09T15:55:56.633Z,5.90
2019-02-09T15:58:24.133Z,6.00
2019-02-09T16:00:51.692Z,6.00
2019-02-09T16:03:19.269Z,6.00
2019-02-09T16:05:46.827Z,6.00
2019-02-09T16:08:14.342Z,6.00
2019-02-09T16:10:41.928Z,6.00
2019-02-09T16:13:09.459Z,6.00
2019-02-09T16:15:37.006Z,6.00
2019-02-09T16:18:04.566Z,6.00
2019-02-09T16:20:32.217Z,6.00
2019-02-09T16:22:59.719Z,6.00
2019-02-09T16:25:27.415Z,6.10
2019-02-09T16:27:55.001Z,6.10
2019-02-09T16:30:23.804Z,6.10
2019-02-09T16:32:51.385Z,6.10
2019-02-09T16:35:20.185Z,6.10
2019-02-09T16:37:48.083Z,6.10
2019-02-09T16:40:19.973Z,6.10
2019-02-09T16:42:47.563Z,6.00
2019-02-09T16:45:18.066Z,6.00
2019-02-09T16:47:45.626Z,6.00
2019-02-09T16:50:13.507Z,6.00
2019-02-09T16:52:41.057Z,6.00
2019-02-09T16:55:09.211Z,6.00
2019-02-09T16:57:36.725Z,6.10
2019-02-09T17:00:05.987Z,6.00
2019-02-09T17:02:33.507Z,6.10
2019-02-09T17:05:01.190Z,6.00
2019-02-09T17:07:28.737Z,6.00
2019-02-09T17:09:56.279Z,6.00
2019-02-09T17:12:23.895Z,6.00
2019-02-09T17:14:51.395Z,6.00
2019-02-09T17:17:18.910Z,5.90
2019-02-09T17:19:46.477Z,6.00
2019-02-09T17:22:14.001Z,5.90
2019-02-09T17:24:41.543Z,5.90
2019-02-09T17:27:09.074Z,5.90
2019-02-09T17:29:36.606Z,5.90
2019-02-09T17:32:04.140Z,5.90
2019-02-09T17:34:51.834Z,5.90
2019-02-09T17:37:19.322Z,5.90
2019-02-09T17:39:46.857Z,6.00
2019-02-09T17:42:14.466Z,5.90
2019-02-09T17:44:42.024Z,5.90
2019-02-09T17:47:14.314Z,5.80
2019-02-09T17:49:41.920Z,5.80
2019-02-09T17:52:09.505Z,5.80
2019-02-09T17:54:37.082Z,5.80
2019-02-09T17:57:04.670Z,5.80
2019-02-09T17:59:32.292Z,5.90
2019-02-09T18:01:59.813Z,5.90
2019-02-09T18:04:27.514Z,5.90
2019-02-09T18:06:55.079Z,5.90
2019-02-09T18:09:22.611Z,5.90
2019-02-09T18:11:50.290Z,5.90
2019-02-09T18:14:17.835Z,5.90
2019-02-09T18:16:45.365Z,5.90
2019-02-09T18:19:12.917Z,5.90
2019-02-09T18:21:52.509Z,5.90
2019-02-09T18:24:42.426Z,5.90
2019-02-09T18:27:09.951Z,5.90
2019-02-09T18:29:42.357Z,5.90
2019-02-09T18:32:09.954Z,5.90
2019-02-09T18:34:37.465Z,5.90
2019-02-09T18:37:05.080Z,5.90
2019-02-09T18:39:35.182Z,6.00
2019-02-09T18:42:02.741Z,6.00
2019-02-09T18:44:31.859Z,6.00
2019-02-09T18:46:59.561Z,6.00
2019-02-09T18:49:27.117Z,6.00
2019-02-09T18:51:54.699Z,6.00
2019-02-09T18:54:22.237Z,6.00
2019-02-09T18:56:49.747Z,6.00
2019-02-09T18:59:17.305Z,5.80
2019-02-09T19:01:44.821Z,5.80
2019-02-09T19:04:12.689Z,5.80
2019-02-09T19:06:40.297Z,5.70
2019-02-09T19:09:11.823Z,5.60
2019-02-09T19:11:39.371Z,5.40
2019-02-09T19:14:07.242Z,5.40
2019-02-09T19:16:34.767Z,5.30
2019-02-09T19:19:02.523Z,5.20
2019-02-09T19:21:30.463Z,5.10
2019-02-09T19:24:13.465Z,5.10
2019-02-09T19:26:40.985Z,5.10
2019-02-09T19:29:08.507Z,5.00
2019-02-09T19:31:36.048Z,5.00
2019-02-09T19:34:04.089Z,5.00
2019-02-09T19:36:31.629Z,5.00
2019-02-09T19:38:59.170Z,5.00
2019-02-09T19:41:26.705Z,5.00
2019-02-09T19:43:54.251Z,5.00
2019-02-09T19:46:21.782Z,5.00
2019-02-09T19:48:49.301Z,4.90
2019-02-09T19:51:16.904Z,5.20
2019-02-09T19:53:44.437Z,4.90
2019-02-09T19:56:12.005Z,4.90
2019-02-09T19:58:39.557Z,4.90
2019-02-09T20:01:07.091Z,5.00
2019-02-09T20:03:34.612Z,5.00
2019-02-09T20:06:02.173Z,5.00
2019-02-09T20:08:29.675Z,5.10
2019-02-09T20:10:57.323Z,5.20
2019-02-09T20:13:26.060Z,5.20
2019-02-09T20:15:53.493Z,5.20
2019-02-09T20:18:21.009Z,5.20
2019-02-09T20:20:48.581Z,5.30
2019-02-09T20:23:17.980Z,5.40
2019-02-09T20:25:45.404Z,5.40
2019-02-09T20:28:12.986Z,5.40
2019-02-09T20:30:40.600Z,5.40
2019-02-09T20:33:08.130Z,5.40
2019-02-09T20:35:35.977Z,5.40
2019-02-09T20:38:04.103Z,5.40
2019-02-09T20:40:36.766Z,5.50
2019-02-09T20:43:05.301Z,5.40
2019-02-09T20:45:32.861Z,5.50
2019-02-09T20:48:00.450Z,5.40
2019-02-09T20:50:27.995Z,5.50
2019-02-09T20:52:55.531Z,5.40
2019-02-09T20:55:23.095Z,5.40
2019-02-09T20:57:50.953Z,5.40
2019-02-09T21:00:19.723Z,5.40
2019-02-09T21:02:47.281Z,5.50
2019-02-09T21:05:15.337Z,5.40
2019-02-09T21:07:42.873Z,5.40
2019-02-09T21:10:29.377Z,5.40
2019-02-09T21:12:57.059Z,5.30
2019-02-09T21:15:25.625Z,5.20
2019-02-09T21:17:53.189Z,5.20
2019-02-09T21:20:20.815Z,5.10
2019-02-09T21:22:48.366Z,5.00
2019-02-09T21:25:26.969Z,4.90
2019-02-09T21:27:54.542Z,4.90
2019-02-09T21:30:22.105Z,4.90
2019-02-09T21:32:49.684Z,4.90
2019-02-09T21:35:17.361Z,4.80
2019-02-09T21:37:45.001Z,4.70
2019-02-09T21:40:16.026Z,4.70
2019-02-09T21:42:44.041Z,4.60
2019-02-09T21:45:17.308Z,4.60
2019-02-09T21:47:44.954Z,4.60
2019-02-09T21:50:24.553Z,4.50
2019-02-09T21:52:52.088Z,4.50
2019-02-09T21:55:19.897Z,4.40
2019-02-09T21:57:47.529Z,4.50
2019-02-09T22:00:20.621Z,4.40
2019-02-09T22:02:48.541Z,4.40
2019-02-09T22:05:16.569Z,4.30
2019-02-09T22:07:44.521Z,4.30
2019-02-09T22:10:15.208Z,4.20
2019-02-09T22:12:43.009Z,4.20
2019-02-09T22:15:11.134Z,4.20
2019-02-09T22:17:38.762Z,4.20
2019-02-09T22:20:09.157Z,4.20
2019-02-09T22:22:36.710Z,4.20
2019-02-09T22:25:05.988Z,4.40
2019-02-09T22:27:33.718Z,4.20
2019-02-09T22:30:01.744Z,4.10
2019-02-09T22:32:29.800Z,4.10
2019-02-09T22:35:00.278Z,4.00
2019-02-09T22:37:32.761Z,4.00
2019-02-09T22:40:02.667Z,4.00
2019-02-09T22:42:30.351Z,3.90
2019-02-09T22:45:00.889Z,3.90
2019-02-09T22:47:28.789Z,3.80
2019-02-09T22:50:01.284Z,3.80
2019-02-09T22:52:41.320Z,3.80
2019-02-09T22:55:09.807Z,3.80
2019-02-09T22:57:37.301Z,3.70
2019-02-09T23:00:16.136Z,3.70
2019-02-09T23:02:43.768Z,3.70
2019-02-09T23:06:08.191Z,3.70
2019-02-09T23:08:38.023Z,3.60
2019-02-09T23:11:05.596Z,3.50
2019-02-09T23:13:33.100Z,3.50
2019-02-09T23:16:03.774Z,3.50
2019-02-09T23:18:31.294Z,3.50
2019-02-09T23:20:59.021Z,3.50
2019-02-09T23:23:26.570Z,3.40
2019-02-09T23:25:55.036Z,3.40
2019-02-09T23:28:22.608Z,3.40
2019-02-09T23:30:50.296Z,3.30
2019-02-09T23:33:17.805Z,3.20
2019-02-09T23:35:45.358Z,3.20
2019-02-09T23:38:12.936Z,3.20
2019-02-09T23:40:40.474Z,3.10
2019-02-09T23:43:08.113Z,3.10
2019-02-09T23:45:35.859Z,3.00
2019-02-09T23:48:03.340Z,3.00
2019-02-09T23:50:30.839Z,3.00
2019-02-09T23:52:58.384Z,3.00
2019-02-09T23:55:25.904Z,3.00
2019-02-09T23:57:54.308Z,2.90
